AEA316 EICK-LEPA
Flight info
| Callsign | AEA316 |
|---|---|
| Flight time | 2h 18m |
| Altitude | 35000 |
| Route | ORTOM1N ORTOM DCT TUVEN DCT TULTA/N0466F350 DCT TURDO DCT INCEF DCT NENEM DCT BADRU P152 PPN/N0465F360 M601 BCN/N0463F330 Z167 LORES |
| Aircraft | B738/M-SDE2E3FGHIRWXY/LB1 |
Departure
| Time | 2026-05-04 10:51 |
|---|---|
| Airport | Cork International Airport (EICK) |
Arrival
| Time | 2026-05-04 13:09 |
|---|---|
| Airport | Palma de Mallorca Airport (LEPA) |
| Time | Latitude | Longitude | Altitude | Speed | Heading |
|---|---|---|---|---|---|
| 2026-05-04 10:37 | 51.84847 | -8.49055 | 502 ft | 0 kts | 70° |
| 2026-05-04 10:44 | 51.84841 | -8.49222 | 502 ft | 4 kts | 158° |
| 2026-05-04 10:45 | 51.84852 | -8.49227 | 502 ft | 1 kts | 168° |
| 2026-05-04 10:47 | 51.84847 | -8.49225 | 502 ft | 2 kts | 168° |
| 2026-05-04 10:47 | 51.84811 | -8.49213 | 502 ft | 10 kts | 168° |
| 2026-05-04 10:47 | 51.84725 | -8.49178 | 502 ft | 14 kts | 160° |
| 2026-05-04 10:47 | 51.84632 | -8.49122 | 499 ft | 15 kts | 160° |
| 2026-05-04 10:49 | 51.83720 | -8.48866 | 467 ft | 31 kts | 160° |
| 2026-05-04 10:49 | 51.83523 | -8.48750 | 468 ft | 29 kts | 160° |
| 2026-05-04 10:50 | 51.83361 | -8.48654 | 469 ft | 20 kts | 160° |
| 2026-05-04 10:51 | 51.85661 | -8.50023 | 1192 ft | 174 kts | 341° |
| 2026-05-04 10:52 | 51.86783 | -8.50633 | 2339 ft | 173 kts | 344° |
| 2026-05-04 10:52 | 51.87992 | -8.51387 | 2805 ft | 202 kts | 327° |
| 2026-05-04 10:52 | 51.88801 | -8.53389 | 3002 ft | 231 kts | 283° |
| 2026-05-04 10:54 | 51.79358 | -8.66828 | 7981 ft | 285 kts | 213° |
| 2026-05-04 10:54 | 51.77703 | -8.68639 | 8871 ft | 286 kts | 213° |
| 2026-05-04 10:56 | 51.63632 | -8.72597 | 12673 ft | 353 kts | 158° |
| 2026-05-04 10:56 | 51.61320 | -8.71107 | 13435 ft | 356 kts | 158° |
| 2026-05-04 10:56 | 51.59019 | -8.69647 | 14123 ft | 359 kts | 158° |
| 2026-05-04 10:57 | 51.56676 | -8.68185 | 14786 ft | 362 kts | 159° |
| 2026-05-04 10:57 | 51.54337 | -8.66743 | 15477 ft | 364 kts | 159° |
| 2026-05-04 10:57 | 51.51977 | -8.65297 | 16140 ft | 366 kts | 159° |
| 2026-05-04 10:57 | 51.49581 | -8.63773 | 16751 ft | 370 kts | 154° |
| 2026-05-04 10:58 | 51.47397 | -8.61592 | 17349 ft | 374 kts | 144° |
| 2026-05-04 10:58 | 51.45269 | -8.59123 | 17986 ft | 376 kts | 145° |
| 2026-05-04 10:58 | 51.43146 | -8.56712 | 18548 ft | 380 kts | 144° |
| 2026-05-04 10:58 | 51.41144 | -8.53893 | 19071 ft | 383 kts | 134° |
| 2026-05-04 10:59 | 51.39329 | -8.50764 | 19634 ft | 385 kts | 133° |
| 2026-05-04 10:59 | 51.37512 | -8.47567 | 20173 ft | 387 kts | 133° |
| 2026-05-04 10:59 | 51.35687 | -8.44388 | 20688 ft | 390 kts | 134° |
| 2026-05-04 10:59 | 51.33829 | -8.41210 | 21214 ft | 393 kts | 134° |
| 2026-05-04 11:00 | 51.31963 | -8.38056 | 21713 ft | 395 kts | 134° |
| 2026-05-04 11:01 | 51.14408 | -8.27558 | 24788 ft | 410 kts | 174° |
| 2026-05-04 11:02 | 51.11578 | -8.27080 | 25145 ft | 413 kts | 173° |
| 2026-05-04 11:02 | 51.08723 | -8.26577 | 25490 ft | 416 kts | 173° |
| 2026-05-04 11:05 | 50.67546 | -8.21505 | 29488 ft | 454 kts | 175° |
| 2026-05-04 11:06 | 50.64398 | -8.21168 | 29743 ft | 456 kts | 175° |
| 2026-05-04 11:06 | 50.61242 | -8.20830 | 29981 ft | 458 kts | 175° |
| 2026-05-04 11:06 | 50.58022 | -8.20486 | 30189 ft | 461 kts | 175° |
| 2026-05-04 11:06 | 50.54838 | -8.20147 | 30355 ft | 463 kts | 175° |
| 2026-05-04 11:08 | 50.32177 | -8.17748 | 32030 ft | 467 kts | 175° |
| 2026-05-04 11:10 | 50.09490 | -8.15367 | 33815 ft | 466 kts | 176° |
| 2026-05-04 11:12 | 49.86867 | -8.13016 | 35172 ft | 465 kts | 176° |
| 2026-05-04 11:12 | 49.83602 | -8.12678 | 35365 ft | 465 kts | 176° |
| 2026-05-04 11:12 | 49.80409 | -8.12349 | 35517 ft | 466 kts | 176° |
| 2026-05-04 11:12 | 49.77159 | -8.12014 | 35676 ft | 466 kts | 176° |
| 2026-05-04 11:13 | 49.73904 | -8.11678 | 35852 ft | 465 kts | 176° |
| 2026-05-04 11:13 | 49.70700 | -8.11349 | 36048 ft | 465 kts | 176° |
| 2026-05-04 11:13 | 49.67457 | -8.11016 | 36201 ft | 465 kts | 176° |
| 2026-05-04 11:13 | 49.64261 | -8.10688 | 36337 ft | 465 kts | 176° |
| 2026-05-04 11:14 | 49.63156 | -8.10575 | 36387 ft | 465 kts | 176° |
| 2026-05-04 11:16 | 49.31858 | -8.07390 | 37019 ft | 472 kts | 176° |
| 2026-05-04 11:16 | 49.25293 | -8.06727 | 37014 ft | 474 kts | 176° |
| 2026-05-04 11:17 | 49.18712 | -8.06064 | 37011 ft | 475 kts | 176° |
| 2026-05-04 11:19 | 48.92398 | -8.03430 | 37010 ft | 473 kts | 177° |
| 2026-05-04 11:19 | 48.85838 | -8.02778 | 37013 ft | 472 kts | 177° |
| 2026-05-04 11:20 | 48.79298 | -8.02130 | 36969 ft | 471 kts | 175° |
| 2026-05-04 11:20 | 48.72774 | -8.01485 | 37002 ft | 471 kts | 175° |
| 2026-05-04 11:22 | 48.50816 | -7.93793 | 37020 ft | 469 kts | 147° |
| 2026-05-04 11:22 | 48.48034 | -7.91140 | 37005 ft | 470 kts | 147° |
| 2026-05-04 11:23 | 48.42519 | -7.85873 | 37010 ft | 470 kts | 147° |
| 2026-05-04 11:25 | 48.23048 | -7.67760 | 37002 ft | 470 kts | 148° |
| 2026-05-04 11:25 | 48.17480 | -7.62628 | 37002 ft | 470 kts | 148° |
| 2026-05-04 11:27 | 47.92446 | -7.39710 | 37001 ft | 470 kts | 148° |
| 2026-05-04 11:28 | 47.86839 | -7.34612 | 36996 ft | 470 kts | 148° |
| 2026-05-04 11:28 | 47.81284 | -7.29575 | 37000 ft | 470 kts | 148° |
| 2026-05-04 11:29 | 47.75712 | -7.24536 | 37000 ft | 469 kts | 148° |
| 2026-05-04 11:29 | 47.70114 | -7.19485 | 37002 ft | 469 kts | 149° |
| 2026-05-04 11:33 | 47.31913 | -6.82892 | 37001 ft | 468 kts | 144° |
| 2026-05-04 11:33 | 47.26655 | -6.77166 | 36999 ft | 467 kts | 144° |
| 2026-05-04 11:34 | 47.21421 | -6.71520 | 36996 ft | 467 kts | 144° |
| 2026-05-04 11:34 | 47.16188 | -6.65901 | 36998 ft | 467 kts | 144° |
| 2026-05-04 11:35 | 47.10946 | -6.60288 | 36999 ft | 466 kts | 144° |
| 2026-05-04 11:35 | 47.05708 | -6.54689 | 36996 ft | 466 kts | 144° |
| 2026-05-04 11:36 | 47.00457 | -6.49091 | 37002 ft | 466 kts | 145° |
| 2026-05-04 11:36 | 46.95222 | -6.43524 | 36998 ft | 465 kts | 145° |
| 2026-05-04 11:37 | 46.89986 | -6.37968 | 37000 ft | 465 kts | 145° |
| 2026-05-04 11:37 | 46.84730 | -6.32406 | 36999 ft | 465 kts | 145° |
| 2026-05-04 11:38 | 46.79516 | -6.26902 | 36999 ft | 465 kts | 145° |
| 2026-05-04 11:38 | 46.74270 | -6.21377 | 36999 ft | 464 kts | 145° |
| 2026-05-04 11:39 | 46.69035 | -6.15877 | 36997 ft | 464 kts | 145° |
| 2026-05-04 11:41 | 46.50708 | -5.96729 | 37001 ft | 463 kts | 146° |
| 2026-05-04 11:41 | 46.45479 | -5.91296 | 36999 ft | 463 kts | 146° |
| 2026-05-04 11:42 | 46.40241 | -5.85866 | 37003 ft | 463 kts | 146° |
| 2026-05-04 11:42 | 46.34991 | -5.80437 | 37001 ft | 463 kts | 146° |
| 2026-05-04 11:43 | 46.29747 | -5.75027 | 37000 ft | 463 kts | 146° |
| 2026-05-04 11:43 | 46.24506 | -5.69632 | 36999 ft | 463 kts | 146° |
| 2026-05-04 11:44 | 46.19283 | -5.64270 | 37007 ft | 463 kts | 146° |
| 2026-05-04 11:44 | 46.14027 | -5.58886 | 36999 ft | 463 kts | 146° |
| 2026-05-04 11:45 | 46.08745 | -5.53489 | 37003 ft | 463 kts | 146° |
| 2026-05-04 11:45 | 46.03520 | -5.48163 | 37001 ft | 463 kts | 146° |
| 2026-05-04 11:46 | 45.98248 | -5.42801 | 37010 ft | 463 kts | 146° |
| 2026-05-04 11:46 | 45.92988 | -5.37464 | 37010 ft | 463 kts | 147° |
| 2026-05-04 11:47 | 45.87735 | -5.32148 | 37012 ft | 463 kts | 147° |
| 2026-05-04 11:47 | 45.82456 | -5.26817 | 37007 ft | 463 kts | 147° |
| 2026-05-04 11:48 | 45.77203 | -5.21524 | 37006 ft | 463 kts | 147° |
| 2026-05-04 11:48 | 45.71938 | -5.16233 | 37008 ft | 463 kts | 147° |
| 2026-05-04 11:49 | 45.66673 | -5.10953 | 37007 ft | 463 kts | 147° |
| 2026-05-04 11:49 | 45.61401 | -5.05678 | 37009 ft | 463 kts | 147° |
| 2026-05-04 11:50 | 45.56129 | -5.00414 | 37007 ft | 463 kts | 147° |
| 2026-05-04 11:50 | 45.50878 | -4.95065 | 37000 ft | 464 kts | 142° |
| 2026-05-04 11:51 | 45.46027 | -4.88993 | 37001 ft | 466 kts | 140° |
| 2026-05-04 11:51 | 45.41246 | -4.82757 | 37010 ft | 466 kts | 140° |
| 2026-05-04 11:52 | 45.36451 | -4.76572 | 37009 ft | 466 kts | 140° |
| 2026-05-04 11:52 | 45.31609 | -4.70410 | 37012 ft | 466 kts | 141° |
| 2026-05-04 11:53 | 45.26765 | -4.64285 | 37009 ft | 466 kts | 141° |
| 2026-05-04 11:53 | 45.21926 | -4.58184 | 37011 ft | 466 kts | 141° |
| 2026-05-04 11:55 | 45.02509 | -4.33831 | 37014 ft | 467 kts | 141° |
| 2026-05-04 11:56 | 44.97641 | -4.27762 | 37013 ft | 467 kts | 141° |
| 2026-05-04 11:56 | 44.93567 | -4.22692 | 37014 ft | 467 kts | 141° |
| 2026-05-04 11:57 | 44.88694 | -4.16643 | 37009 ft | 467 kts | 141° |
| 2026-05-04 11:57 | 44.83818 | -4.10603 | 37014 ft | 467 kts | 141° |
| 2026-05-04 11:58 | 44.78913 | -4.04542 | 37014 ft | 467 kts | 141° |
| 2026-05-04 11:58 | 44.74035 | -3.98528 | 37017 ft | 467 kts | 142° |
| 2026-05-04 11:59 | 44.69154 | -3.92525 | 37004 ft | 467 kts | 142° |
| 2026-05-04 11:59 | 44.64258 | -3.86517 | 37008 ft | 467 kts | 142° |
| 2026-05-04 12:00 | 44.59354 | -3.80513 | 37017 ft | 467 kts | 142° |
| 2026-05-04 12:00 | 44.54467 | -3.74544 | 37014 ft | 467 kts | 142° |
| 2026-05-04 12:01 | 44.49541 | -3.68541 | 37010 ft | 467 kts | 142° |
| 2026-05-04 12:02 | 44.32369 | -3.47725 | 37009 ft | 466 kts | 142° |
| 2026-05-04 12:03 | 44.27482 | -3.41830 | 37018 ft | 466 kts | 142° |
| 2026-05-04 12:03 | 44.22574 | -3.35924 | 37009 ft | 466 kts | 142° |
| 2026-05-04 12:04 | 44.17661 | -3.30025 | 37013 ft | 466 kts | 142° |
| 2026-05-04 12:04 | 44.12750 | -3.24141 | 37015 ft | 466 kts | 143° |
| 2026-05-04 12:05 | 44.07849 | -3.18282 | 37015 ft | 465 kts | 143° |
| 2026-05-04 12:05 | 44.02889 | -3.12428 | 37014 ft | 465 kts | 144° |
| 2026-05-04 12:06 | 43.97865 | -3.06794 | 37014 ft | 464 kts | 145° |
| 2026-05-04 12:06 | 43.92834 | -3.01194 | 37010 ft | 464 kts | 145° |
| 2026-05-04 12:07 | 43.87828 | -2.95595 | 37018 ft | 464 kts | 145° |
| 2026-05-04 12:07 | 43.82798 | -2.89964 | 37026 ft | 465 kts | 145° |
| 2026-05-04 12:08 | 43.77754 | -2.84330 | 37006 ft | 465 kts | 145° |
| 2026-05-04 12:08 | 43.72734 | -2.78731 | 37019 ft | 465 kts | 144° |
| 2026-05-04 12:09 | 43.67714 | -2.73001 | 37017 ft | 465 kts | 144° |
| 2026-05-04 12:09 | 43.62705 | -2.67371 | 37022 ft | 464 kts | 145° |
| 2026-05-04 12:10 | 43.57679 | -2.61840 | 37028 ft | 465 kts | 145° |
| 2026-05-04 12:10 | 43.52623 | -2.56283 | 37025 ft | 464 kts | 145° |
| 2026-05-04 12:11 | 43.47576 | -2.50730 | 37026 ft | 464 kts | 145° |
| 2026-05-04 12:11 | 43.42535 | -2.45190 | 37027 ft | 464 kts | 146° |
| 2026-05-04 12:12 | 43.37501 | -2.39669 | 37030 ft | 464 kts | 146° |
| 2026-05-04 12:12 | 43.32463 | -2.34156 | 37030 ft | 464 kts | 146° |
| 2026-05-04 12:14 | 43.12234 | -2.12139 | 37011 ft | 465 kts | 146° |
| 2026-05-04 12:15 | 43.07170 | -2.06653 | 37011 ft | 464 kts | 146° |
| 2026-05-04 12:15 | 43.02100 | -2.01162 | 37002 ft | 463 kts | 146° |
| 2026-05-04 12:16 | 42.97094 | -1.95747 | 36998 ft | 461 kts | 147° |
| 2026-05-04 12:16 | 42.92063 | -1.90317 | 36991 ft | 461 kts | 147° |
| 2026-05-04 12:17 | 42.87006 | -1.84866 | 36998 ft | 464 kts | 147° |
| 2026-05-04 12:17 | 42.81933 | -1.79387 | 37006 ft | 464 kts | 147° |
| 2026-05-04 12:18 | 42.76881 | -1.73938 | 37016 ft | 463 kts | 146° |
| 2026-05-04 12:18 | 42.72513 | -1.67412 | 37034 ft | 475 kts | 129° |
| 2026-05-04 12:19 | 42.69500 | -1.59379 | 37037 ft | 483 kts | 119° |
| 2026-05-04 12:19 | 42.66669 | -1.51032 | 36999 ft | 483 kts | 121° |
| 2026-05-04 12:20 | 42.63783 | -1.42823 | 36991 ft | 481 kts | 121° |
| 2026-05-04 12:20 | 42.60902 | -1.34647 | 36977 ft | 481 kts | 121° |
| 2026-05-04 12:21 | 42.57986 | -1.26472 | 36955 ft | 481 kts | 122° |
| 2026-05-04 12:21 | 42.55055 | -1.18297 | 36950 ft | 482 kts | 122° |
| 2026-05-04 12:22 | 42.52134 | -1.10152 | 36955 ft | 482 kts | 122° |
| 2026-05-04 12:22 | 42.49197 | -1.01985 | 36947 ft | 483 kts | 122° |
| 2026-05-04 12:23 | 42.46257 | -0.93814 | 36948 ft | 482 kts | 122° |
| 2026-05-04 12:23 | 42.43311 | -0.85638 | 36951 ft | 482 kts | 122° |
| 2026-05-04 12:24 | 42.40379 | -0.77509 | 36943 ft | 481 kts | 122° |
| 2026-05-04 12:24 | 42.37445 | -0.69369 | 36956 ft | 481 kts | 122° |
| 2026-05-04 12:25 | 42.34511 | -0.61246 | 36944 ft | 481 kts | 122° |
| 2026-05-04 12:25 | 42.31565 | -0.53137 | 36960 ft | 482 kts | 123° |
| 2026-05-04 12:26 | 42.28589 | -0.45022 | 36959 ft | 482 kts | 123° |
| 2026-05-04 12:26 | 42.25610 | -0.36918 | 36964 ft | 483 kts | 123° |
| 2026-05-04 12:27 | 42.22621 | -0.28795 | 36952 ft | 483 kts | 123° |
| 2026-05-04 12:27 | 42.19629 | -0.20693 | 36954 ft | 483 kts | 123° |
| 2026-05-04 12:28 | 42.16636 | -0.12608 | 36959 ft | 483 kts | 123° |
| 2026-05-04 12:28 | 42.13615 | -0.04467 | 36964 ft | 483 kts | 123° |
| 2026-05-04 12:29 | 42.10607 | 0.03621 | 36956 ft | 483 kts | 123° |
| 2026-05-04 12:29 | 42.07596 | 0.11697 | 36955 ft | 483 kts | 124° |
| 2026-05-04 12:30 | 42.04578 | 0.19769 | 36949 ft | 483 kts | 124° |
| 2026-05-04 12:30 | 42.01563 | 0.27829 | 36962 ft | 483 kts | 124° |
| 2026-05-04 12:31 | 41.98533 | 0.35913 | 36951 ft | 484 kts | 124° |
| 2026-05-04 12:31 | 41.95511 | 0.43982 | 36953 ft | 484 kts | 124° |
| 2026-05-04 12:32 | 41.90958 | 0.56086 | 36958 ft | 484 kts | 124° |
| 2026-05-04 12:33 | 41.87889 | 0.64123 | 36969 ft | 485 kts | 124° |
| 2026-05-04 12:33 | 41.84813 | 0.72174 | 36955 ft | 486 kts | 124° |
| 2026-05-04 12:34 | 41.81729 | 0.80245 | 36932 ft | 486 kts | 124° |
| 2026-05-04 12:34 | 41.78648 | 0.88295 | 36950 ft | 485 kts | 124° |
| 2026-05-04 12:35 | 41.75570 | 0.96318 | 36936 ft | 485 kts | 124° |
| 2026-05-04 12:35 | 41.72487 | 1.04333 | 36932 ft | 485 kts | 124° |
| 2026-05-04 12:36 | 41.69387 | 1.12367 | 36932 ft | 485 kts | 124° |
| 2026-05-04 12:36 | 41.66281 | 1.20399 | 36924 ft | 485 kts | 125° |
| 2026-05-04 12:37 | 41.63186 | 1.28391 | 36929 ft | 485 kts | 125° |
| 2026-05-04 12:37 | 41.60080 | 1.36391 | 36934 ft | 485 kts | 125° |
| 2026-05-04 12:38 | 41.56971 | 1.44380 | 36932 ft | 485 kts | 125° |
| 2026-05-04 12:38 | 41.53853 | 1.52358 | 36938 ft | 484 kts | 125° |
| 2026-05-04 12:39 | 41.50714 | 1.60301 | 36924 ft | 485 kts | 126° |
| 2026-05-04 12:39 | 41.47572 | 1.68238 | 36922 ft | 480 kts | 126° |
| 2026-05-04 12:39 | 41.46038 | 1.72142 | 36919 ft | 468 kts | 126° |
| 2026-05-04 12:40 | 41.44547 | 1.75934 | 36933 ft | 463 kts | 126° |
| 2026-05-04 12:40 | 41.41549 | 1.83510 | 36712 ft | 466 kts | 126° |
| 2026-05-04 12:40 | 41.40316 | 1.86613 | 36329 ft | 468 kts | 126° |
| 2026-05-04 12:41 | 41.38948 | 1.90061 | 35832 ft | 466 kts | 126° |
| 2026-05-04 12:41 | 41.37423 | 1.93910 | 35274 ft | 466 kts | 127° |
| 2026-05-04 12:41 | 41.35920 | 1.97697 | 34692 ft | 466 kts | 127° |
| 2026-05-04 12:41 | 41.34398 | 2.01523 | 34097 ft | 466 kts | 127° |
| 2026-05-04 12:42 | 41.32862 | 2.05345 | 33413 ft | 465 kts | 129° |
| 2026-05-04 12:42 | 41.31051 | 2.08783 | 32770 ft | 450 kts | 140° |
| 2026-05-04 12:42 | 41.28866 | 2.11716 | 32154 ft | 438 kts | 149° |
| 2026-05-04 12:42 | 41.26479 | 2.14083 | 31548 ft | 425 kts | 158° |
| 2026-05-04 12:43 | 41.23912 | 2.15999 | 31077 ft | 418 kts | 160° |
| 2026-05-04 12:43 | 41.21366 | 2.17857 | 30599 ft | 414 kts | 160° |
| 2026-05-04 12:43 | 41.18869 | 2.19678 | 30151 ft | 411 kts | 159° |
| 2026-05-04 12:43 | 41.16398 | 2.21490 | 29649 ft | 407 kts | 159° |
| 2026-05-04 12:44 | 41.13928 | 2.23311 | 29181 ft | 402 kts | 159° |
| 2026-05-04 12:44 | 41.11486 | 2.25118 | 28715 ft | 398 kts | 159° |
| 2026-05-04 12:44 | 41.09096 | 2.26889 | 28266 ft | 394 kts | 159° |
| 2026-05-04 12:44 | 41.06700 | 2.28666 | 27799 ft | 390 kts | 159° |
| 2026-05-04 12:45 | 41.04354 | 2.30405 | 27366 ft | 387 kts | 158° |
| 2026-05-04 12:45 | 41.02003 | 2.32145 | 26911 ft | 384 kts | 158° |
| 2026-05-04 12:45 | 40.99688 | 2.33858 | 26473 ft | 381 kts | 158° |
| 2026-05-04 12:45 | 40.97369 | 2.35572 | 26047 ft | 379 kts | 158° |
| 2026-05-04 12:46 | 40.95094 | 2.37252 | 25615 ft | 377 kts | 158° |
| 2026-05-04 12:46 | 40.92803 | 2.38942 | 25194 ft | 376 kts | 158° |
| 2026-05-04 12:46 | 40.90521 | 2.40625 | 24755 ft | 375 kts | 158° |
| 2026-05-04 12:46 | 40.88257 | 2.42292 | 24329 ft | 375 kts | 158° |
| 2026-05-04 12:47 | 40.85969 | 2.43978 | 23915 ft | 373 kts | 158° |
| 2026-05-04 12:47 | 40.83730 | 2.45625 | 23486 ft | 372 kts | 158° |
| 2026-05-04 12:47 | 40.81451 | 2.47301 | 22986 ft | 371 kts | 158° |
| 2026-05-04 12:47 | 40.79221 | 2.48939 | 22539 ft | 369 kts | 158° |
| 2026-05-04 12:48 | 40.76975 | 2.50589 | 22102 ft | 367 kts | 158° |
| 2026-05-04 12:48 | 40.75496 | 2.51675 | 21833 ft | 365 kts | 158° |
| 2026-05-04 12:48 | 40.72548 | 2.53837 | 21278 ft | 363 kts | 157° |
| 2026-05-04 12:48 | 40.71082 | 2.54911 | 21002 ft | 361 kts | 157° |
| 2026-05-04 12:49 | 40.68870 | 2.56531 | 20584 ft | 360 kts | 157° |
| 2026-05-04 12:49 | 40.66711 | 2.58111 | 20179 ft | 358 kts | 157° |
| 2026-05-04 12:49 | 40.64524 | 2.59709 | 19773 ft | 356 kts | 157° |
| 2026-05-04 12:49 | 40.62354 | 2.61295 | 19369 ft | 355 kts | 157° |
| 2026-05-04 12:50 | 40.60209 | 2.62860 | 18969 ft | 354 kts | 156° |
| 2026-05-04 12:50 | 40.58078 | 2.64415 | 18573 ft | 353 kts | 156° |
| 2026-05-04 12:50 | 40.55921 | 2.65988 | 18164 ft | 352 kts | 156° |
| 2026-05-04 12:50 | 40.53795 | 2.67537 | 17708 ft | 351 kts | 156° |
| 2026-05-04 12:51 | 40.51638 | 2.69107 | 17276 ft | 350 kts | 156° |
| 2026-05-04 12:51 | 40.49537 | 2.70635 | 16869 ft | 347 kts | 156° |
| 2026-05-04 12:51 | 40.47410 | 2.72177 | 16466 ft | 345 kts | 156° |
| 2026-05-04 12:51 | 40.45327 | 2.73685 | 16073 ft | 343 kts | 156° |
| 2026-05-04 12:52 | 40.43230 | 2.75202 | 15683 ft | 341 kts | 156° |
| 2026-05-04 12:52 | 40.41178 | 2.76685 | 15301 ft | 339 kts | 155° |
| 2026-05-04 12:52 | 40.39105 | 2.78183 | 14912 ft | 337 kts | 155° |
| 2026-05-04 12:52 | 40.37065 | 2.79656 | 14533 ft | 336 kts | 155° |
| 2026-05-04 12:53 | 40.35011 | 2.81138 | 14148 ft | 334 kts | 155° |
| 2026-05-04 12:53 | 40.32990 | 2.82596 | 13759 ft | 333 kts | 155° |
| 2026-05-04 12:53 | 40.30958 | 2.84060 | 13334 ft | 331 kts | 155° |
| 2026-05-04 12:53 | 40.28967 | 2.85495 | 13013 ft | 327 kts | 155° |
| 2026-05-04 12:54 | 40.27004 | 2.86912 | 12887 ft | 316 kts | 155° |
| 2026-05-04 12:54 | 40.25092 | 2.88288 | 12747 ft | 307 kts | 155° |
| 2026-05-04 12:54 | 40.23259 | 2.89607 | 12615 ft | 299 kts | 155° |
| 2026-05-04 12:54 | 40.21445 | 2.90911 | 12418 ft | 293 kts | 155° |
| 2026-05-04 12:55 | 40.19683 | 2.92175 | 12157 ft | 289 kts | 155° |
| 2026-05-04 12:55 | 40.17913 | 2.93446 | 11853 ft | 288 kts | 155° |
| 2026-05-04 12:55 | 40.16180 | 2.94690 | 11544 ft | 287 kts | 155° |
| 2026-05-04 12:55 | 40.14431 | 2.95945 | 11247 ft | 285 kts | 155° |
| 2026-05-04 12:56 | 40.12684 | 2.97198 | 10939 ft | 284 kts | 155° |
| 2026-05-04 12:56 | 40.10965 | 2.98430 | 10635 ft | 283 kts | 155° |
| 2026-05-04 12:56 | 40.09224 | 2.99678 | 10335 ft | 283 kts | 155° |
| 2026-05-04 12:56 | 40.07522 | 3.00898 | 10145 ft | 277 kts | 155° |
| 2026-05-04 12:57 | 40.05851 | 3.02096 | 10010 ft | 270 kts | 155° |
| 2026-05-04 12:57 | 40.04204 | 3.03275 | 9737 ft | 269 kts | 155° |
| 2026-05-04 12:57 | 40.02572 | 3.04442 | 9445 ft | 268 kts | 155° |
| 2026-05-04 12:57 | 40.00954 | 3.05598 | 9159 ft | 267 kts | 155° |
| 2026-05-04 12:58 | 39.99321 | 3.06765 | 8876 ft | 265 kts | 155° |
| 2026-05-04 12:58 | 39.97717 | 3.07910 | 8603 ft | 264 kts | 155° |
| 2026-05-04 12:58 | 39.96105 | 3.09061 | 8336 ft | 262 kts | 155° |
| 2026-05-04 12:58 | 39.94502 | 3.10203 | 8067 ft | 261 kts | 155° |
| 2026-05-04 12:59 | 39.92891 | 3.11186 | 7776 ft | 255 kts | 171° |
| 2026-05-04 12:59 | 39.91154 | 3.11345 | 7628 ft | 246 kts | 186° |
| 2026-05-04 12:59 | 39.89465 | 3.11162 | 7379 ft | 245 kts | 189° |
| 2026-05-04 12:59 | 39.87782 | 3.10924 | 7134 ft | 244 kts | 189° |
| 2026-05-04 13:00 | 39.86108 | 3.10687 | 6872 ft | 243 kts | 189° |
| 2026-05-04 13:00 | 39.84425 | 3.10458 | 6611 ft | 242 kts | 189° |
| 2026-05-04 13:00 | 39.83291 | 3.10307 | 6432 ft | 242 kts | 189° |
| 2026-05-04 13:00 | 39.81625 | 3.10089 | 6156 ft | 240 kts | 188° |
| 2026-05-04 13:01 | 39.79972 | 3.09880 | 5894 ft | 239 kts | 188° |
| 2026-05-04 13:01 | 39.78307 | 3.09671 | 5612 ft | 239 kts | 188° |
| 2026-05-04 13:01 | 39.76665 | 3.09467 | 5352 ft | 238 kts | 188° |
| 2026-05-04 13:01 | 39.75018 | 3.09263 | 5099 ft | 236 kts | 188° |
| 2026-05-04 13:02 | 39.73388 | 3.09061 | 4847 ft | 236 kts | 188° |
| 2026-05-04 13:02 | 39.71794 | 3.08716 | 4559 ft | 233 kts | 206° |
| 2026-05-04 13:02 | 39.70589 | 3.07406 | 4314 ft | 228 kts | 232° |
| 2026-05-04 13:02 | 39.69621 | 3.05756 | 4061 ft | 228 kts | 234° |
| 2026-05-04 13:03 | 39.68745 | 3.04070 | 3998 ft | 226 kts | 237° |
| 2026-05-04 13:03 | 39.67918 | 3.02364 | 3985 ft | 217 kts | 237° |
| 2026-05-04 13:03 | 39.67156 | 3.00761 | 3978 ft | 201 kts | 238° |
| 2026-05-04 13:03 | 39.66454 | 2.99276 | 3971 ft | 186 kts | 238° |
| 2026-05-04 13:04 | 39.65782 | 2.97854 | 3798 ft | 187 kts | 237° |
| 2026-05-04 13:04 | 39.65118 | 2.96452 | 3564 ft | 175 kts | 238° |
| 2026-05-04 13:04 | 39.64503 | 2.95152 | 3345 ft | 162 kts | 238° |
| 2026-05-04 13:04 | 39.63939 | 2.93958 | 3163 ft | 153 kts | 238° |
| 2026-05-04 13:05 | 39.63388 | 2.92793 | 3010 ft | 147 kts | 239° |
| 2026-05-04 13:05 | 39.62899 | 2.91761 | 2795 ft | 136 kts | 238° |
| 2026-05-04 13:05 | 39.62407 | 2.90719 | 2612 ft | 138 kts | 238° |
| 2026-05-04 13:05 | 39.61905 | 2.89652 | 2424 ft | 137 kts | 238° |
| 2026-05-04 13:06 | 39.61409 | 2.88606 | 2238 ft | 138 kts | 237° |
| 2026-05-04 13:06 | 39.60911 | 2.87553 | 2035 ft | 133 kts | 237° |
| 2026-05-04 13:06 | 39.60438 | 2.86550 | 1874 ft | 132 kts | 237° |
| 2026-05-04 13:06 | 39.59947 | 2.85508 | 1722 ft | 137 kts | 235° |
| 2026-05-04 13:07 | 39.59444 | 2.84447 | 1506 ft | 138 kts | 237° |
| 2026-05-04 13:07 | 39.58955 | 2.83405 | 1356 ft | 132 kts | 238° |
| 2026-05-04 13:07 | 39.58473 | 2.82386 | 1172 ft | 134 kts | 238° |
| 2026-05-04 13:07 | 39.57983 | 2.81349 | 990 ft | 136 kts | 237° |
| 2026-05-04 13:08 | 39.57493 | 2.80308 | 787 ft | 133 kts | 237° |
| 2026-05-04 13:08 | 39.57013 | 2.79290 | 613 ft | 134 kts | 237° |
| 2026-05-04 13:08 | 39.56519 | 2.78244 | 415 ft | 137 kts | 237° |
| 2026-05-04 13:08 | 39.56023 | 2.77191 | 243 ft | 137 kts | 238° |
| 2026-05-04 13:09 | 39.55531 | 2.76140 | 58 ft | 134 kts | 237° |
| 2026-05-04 13:09 | 39.55090 | 2.75184 | 30 ft | 110 kts | 235° |
| 2026-05-04 13:09 | 39.54732 | 2.74450 | 35 ft | 84 kts | 238° |
| 2026-05-04 13:09 | 39.54567 | 2.74042 | 35 ft | 34 kts | 257° |
| 2026-05-04 13:10 | 39.54552 | 2.73820 | 34 ft | 18 kts | 271° |
| 2026-05-04 13:10 | 39.54586 | 2.73732 | 35 ft | 10 kts | 4° |
| 2026-05-04 13:10 | 39.54630 | 2.73796 | 35 ft | 10 kts | 59° |
| 2026-05-04 13:10 | 39.54665 | 2.73869 | 35 ft | 9 kts | 58° |
| 2026-05-04 13:11 | 39.54700 | 2.73942 | 35 ft | 10 kts | 56° |
| 2026-05-04 13:11 | 39.54762 | 2.73959 | 35 ft | 10 kts | 343° |
| 2026-05-04 13:11 | 39.54823 | 2.73990 | 33 ft | 10 kts | 25° |
| 2026-05-04 13:11 | 39.54874 | 2.73977 | 35 ft | 4 kts | 331° |
| 2026-05-04 13:12 | 39.54897 | 2.73960 | 35 ft | 4 kts | 329° |
| 2026-05-04 13:12 | 39.54934 | 2.73932 | 34 ft | 9 kts | 329° |
| 2026-05-04 13:12 | 39.55003 | 2.73879 | 34 ft | 14 kts | 327° |
| 2026-05-04 13:12 | 39.55079 | 2.73818 | 35 ft | 14 kts | 329° |
| 2026-05-04 13:13 | 39.55151 | 2.73763 | 35 ft | 10 kts | 326° |
| 2026-05-04 13:13 | 39.55170 | 2.73673 | 35 ft | 13 kts | 237° |
| 2026-05-04 13:13 | 39.55118 | 2.73575 | 35 ft | 13 kts | 236° |
| 2026-05-04 13:13 | 39.55080 | 2.73495 | 35 ft | 7 kts | 238° |
| 2026-05-04 13:14 | 39.55061 | 2.73481 | 35 ft | 3 kts | 185° |
| 2026-05-04 13:14 | 39.55039 | 2.73487 | 35 ft | 3 kts | 165° |
| 2026-05-04 13:14 | 39.55024 | 2.73492 | 34 ft | 1 kts | 165° |
| 2026-05-04 13:14 | 39.55020 | 2.73493 | 35 ft | 0 kts | 165° |